Details From MGPB - PUERTO BARRIOS
To MMCM - CHETUMAL INTL
Flight Number -
Tags decoded
Created
Modified
Stats Distance 208 nm / 386 km
Max Altitude 0 ft / 0 m
Waypoints 6
Social Downloads 2
Likes 0
Share VATSIM

Download

Looking for another format? Having issues loading an existing format? Contact us
Advertisement - Login to hide

Notes

Requested: MGPB BENES OLOVA BZE ULEVA MMCM

Route

MGPB BENES OLOVA BZE ULEVA MMCM

ID Type Via Altitude Latitude Longitude Leg Dist Tot Dist Heading (true) Name
O MGPB APT - 0 ft / 0 m 15.73087˚ -88.58377˚ - 0 nm - PUERTO BARRIOS
BENES FIX - 0 ft / 0 m 16.20833˚ -89.32333˚ 51 nm 51 nm 304° / 304° -
OLOVA FIX - 0 ft / 0 m 17.20167˚ -88.57222˚ 73 nm 125 nm 36° / 36° -
BZE NDB - 0 ft / 0 m 17.53389˚ -88.31056˚ 24 nm 150 nm 37° / 37° BELIZE NDB
ULEVA FIX - 0 ft / 0 m 17.95500˚ -88.31500˚ 25 nm 175 nm 359° / 359° -
O MMCM APT - 0 ft / 0 m 18.50467˚ -88.32685˚ 33 nm 208 nm 359° / 359° CHETUMAL INTL

Altitude Profile

Advertisement - Login to hide

Weather


0- 5 10 15 20 25 30 35+ Temperature / ° C

Clouds and Precipitation
Forecast for 2017-12-13 12:00 UTC. Updated 26 minutes ago

Ground ~20,000 ft ~40,000 ft Winds

MGPB

Details ICAO MGPB (PBR)
Name PUERTO BARRIOS
Region Guatemala
Timezone America/Guatemala (UTC-6.0)
Stats Elevation 33 ft / 10 m (AMSL)
Location 15.730872° -88.583765°
Runways 1
Magnetic Variation 0.144° W

METAR

MGPB 120900Z 18004KT 9999 SCT020 BKN090 19/18 Q1019 A 3009

Decode

TAF

Not found

Departure Runways

ID Width Length Bearing (true) Bearing (mag) Surface Threshold Offset Overrun Length
12 110 ft / 34 m 8,861 ft / 2,701 m 127.91° 128.05° Concrete 0 ft / 0 m 0 ft / 0 m
30 110 ft / 34 m 8,861 ft / 2,701 m 307.92° 308.06° Concrete 0 ft / 0 m 0 ft / 0 m

MMCM

Details ICAO MMCM (CTM)
Name CHETUMAL INTL
Region Mexico
Timezone America/Cancun (UTC-5.0)
Stats Elevation 39 ft / 12 m (AMSL)
Location 18.504666° -88.326847°
Runways 1
Magnetic Variation 0.679° W

METAR

MMCM 130941Z 00000KT 7SM SKC 14/14 A3011

Decode

TAF

TAF MMCM 130526Z 1306/1406 03005KT P6SM SCT015 FM131600 02010KT P6SM SCT020 FM140200 08005KT P6SM SCT020

Decode

Destination Runways

ID Width Length Bearing (true) Bearing (mag) Surface Threshold Offset Overrun Length
10 151 ft / 46 m 7,214 ft / 2,199 m 108.17° 108.85° Asphalt 0 ft / 0 m 0 ft / 0 m
28 151 ft / 46 m 7,214 ft / 2,199 m 288.18° 288.86° Asphalt 869 ft / 265 m 0 ft / 0 m

Popular Alternatives